Carlsbad, NM

5:34 AM MDT on August 21, 2014 (GMT -0600)
Lea County Regional | Change Station
CLOSE
Current Station
Airport
Location: Hobbs,
Elevation: 3658 ft
Nearby Weather Stations

Elev 3658 ft 32.69 °N, 103.22 °W | Updated 1 hour ago

Clear
Clear
73 °F
Feels Like 73 °F
N
12
Wind Variable Wind from SSE

Today
High -- | Low -- °F
--% Chance of Precip.
Yesterday
High -- | Low -- °F
Precip. -- in
6:24 AM 7:34 PM
Waning Crescent, 15% visible
Pressure 30.00 in
Visibility 10.0 miles
Clouds Clear
Dew Point 61 °F
Humidity 65%
Rainfall 0.00 in
Snow Depth Not available.
UV 0 out of 12
Pollen 8.20 out of 12
Air Quality Not available.
Flu Activity Not available.
METAR KHOB 210955Z AUTO 16010KT 10SM CLR 23/16 A3000 RMK AO2

More Conditions Fewer Conditions

Pressure 30.00 in
Visibility 10.0 miles
Clouds Clear
Dew Point 61 °F
Humidity 65%
Rainfall 0.00 in
Snow Depth Not available.
UV 0 out of 12
Pollen 8.20 out of 12
Air Quality Not available.
Flu Activity Not available.
METAR KHOB 210955Z AUTO 16010KT 10SM CLR 23/16 A3000 RMK AO2

More Conditions Fewer Conditions

10-Day Weather Forecast

Almanac

Astronomy

Aug. 21, 2014 Rise Set
Actual Time 6:24 AM MDT 7:34 PM MDT
Civil Twilight 5:59 AM MDT 8:00 PM MDT
Nautical Twilight 5:29 AM MDT 8:30 PM MDT
Astronomical Twilight 4:57 AM MDT 9:01 PM MDT
Moon 3:02 AM MDT 5:00 PM MDT
Length of Visible Light 14h 00m
Length of Day
13h 09m
Tomorrow will be 1m 49s shorter.
Waning Crescent, 15% of the Moon is Illuminated
Today
Waning Crescent
Aug 25
New
Sep 2
First Quarter
Sep 8
Full
Sep 15
Last Quarter

Today's Extremes

State Highs State Lows

Community

WunderPhotos

Upload Photos

1,745,862 photos uploaded!

Nearby

Snow Depth

Station Depth Elevation
Sierra Blanca 1 in 10280 ft
McKnight Cabin 0 in 9240 ft
Wesner Springs 2 in 11120 ft
Santa Fe 0 in 11445 ft
Silver Creek Divide 10 in 9000 ft

Earthquake Activity

City Distance Mag. Time & Date
No recent earthquake activity has been reported nearby.
Minimum magnitude displayed is 2.5.

Coastal Water Temperatures

Place Temperature
No Stations Reporting

Nearby Weather Stations